ADDS METAR Data INFO
IDs: Format: Raw Decoded Include TAF

Data at: 0200 UTC 17 Oct 2017

KLEX 170154Z 00000KT 10SM CLR 09/05 A3032 RMK AO2 SLP267 T00940050
KLEX 170054Z 00000KT 10SM CLR 11/05 A3031 RMK AO2 SLP264 T01060050
KLEX 162354Z 00000KT 10SM CLR 12/06 A3030 RMK AO2 SLP262 T01170056 10172 20106 53005
KLEX 162254Z 00000KT 10SM CLR 14/04 A3029 RMK AO2 SLP257 T01390044
KLEX 162154Z 33004KT 10SM BKN050 14/04 A3028 RMK AO2 SLP253 T01440044
KLEX 162054Z 33007KT 10SM BKN050 17/04 A3028 RMK AO2 SLP253 T01670044 56012
KLEX 161954Z 36007KT 10SM BKN048 17/04 A3029 RMK AO2 SLP255 T01670044
KLEX 161854Z 02007KT 10SM SCT048 17/05 A3029 RMK AO2 SLP256 T01670050
KLEX 161754Z VRB04KT 10SM SCT045 BKN050 14/05 A3032 RMK AO2 SLP267 T01440050 10161 20072 58004
KLEX 161654Z 35007KT 10SM SCT036 BKN045 15/06 A3033 RMK AO2 SLP269 T01500056
KLEX 161554Z 34007G16KT 10SM SCT033 BKN041 15/07 A3034 RMK AO2 SLP271 T01500072
KLEX 161454Z 35007KT 10SM FEW018 13/07 A3033 RMK AO2 SLP271 T01330072 51018
KLEX 161354Z 36007KT 10SM FEW013 12/08 A3032 RMK AO2 SLP268 T01170078
KLEX 161254Z 33005KT 10SM CLR 09/07 A3030 RMK AO2 SLP261 T00940067
KLEX 161154Z 32004KT 10SM CLR 07/05 A3028 RMK AO2 SLP254 T00720050 10111 20072 53015
KLEX 161054Z 32005KT 10SM CLR 08/06 A3026 RMK AO2 SLP246 T00780056
KLEX 160954Z 33006KT 10SM CLR 08/06 A3024 RMK AO2 SLP241 T00830056
KLEX 160854Z AUTO 32005KT 10SM BKN043 10/06 A3023 RMK AO2 SLP236 T01000061 51005
KLEX 160754Z 31007KT 10SM FEW027 OVC041 11/07 A3023 RMK AO2 SLP231 T01060067
KLEX 160654Z 31005KT 10SM OVC041 11/07 A3023 RMK AO2 SLP230 T01060067
KLEX 160554Z 29005KT 10SM OVC037 11/07 A3022 RMK AO2 SLP228 T01110067 10128 20111 50002
KLEX 160454Z 32004KT 10SM OVC036 12/06 A3023 RMK AO2 SLP230 T01170061 402610111
KLEX 160404Z 33007KT 10SM OVC031 12/06 A3022 RMK AO2 T01170056
KLEX 160354Z 32010KT 10SM OVC029 12/06 A3022 RMK AO2 SLP229 T01170061
KLEX 160254Z 33009KT 10SM OVC027 12/06 A3021 RMK AO2 SLP227 T01170061 51032
KLEX 160154Z 32010G18KT 10SM OVC025 12/07 A3018 RMK AO2 SLP217 T01170067
KLEX 160054Z 33013G22KT 10SM OVC021 12/08 A3015 RMK AO2 SLP205 T01220078
KLEX 160001Z 33014G24KT 10SM OVC017 13/09 A3012 RMK AO2 T01280094
KLEX 152354Z 32015G24KT 10SM BKN010 OVC015 13/09 A3012 RMK AO2 SLP194 60000 T01280094 10261 20128 53029
KLEX 152254Z 32011G21KT 10SM BKN010 OVC015 14/13 A3007 RMK AO2 RAE17 CIG 007V013 SLP179 P0000 T01440128
KLEX 152226Z 33010KT 10SM OVC009 16/13 A3005 RMK AO2 RAE17 CIG 007V013 P0000 T01560133
KLEX 152207Z 31011G20KT 8SM -RA BKN011 OVC034 16/13 A3004 RMK AO2 CIG 007V014 P0000 T01560133
KLEX 152154Z 31011G20KT 10SM -RA FEW011 OVC033 16/13 A3004 RMK AO2 RAB2057 SLP168 P0000 T01560133
KLEX 152137Z 30012G25KT 8SM -RA SCT027 OVC034 16/13 A3004 RMK AO2 RAB2057 P0000 T01560133
KLEX 152119Z 30012G25KT 10SM -RA FEW015 OVC026 16/13 A3004 RMK AO2 RAB2057 P0000 T01610133
KLEX 152054Z 32015G29KT 10SM BKN014 BKN024 OVC037 17/14 A3003 RMK AO2 PK WND 29034/2018 WSHFT 2014 RAB30E39 SLP163 P0000 60000 T01720139 53009
KLEX 152034Z 32018G29KT 10SM -RA OVC039 18/14 A3000 RMK AO2 PK WND 29034/2018 WSHFT 2014 RAB30 PRESRR P0000 T01830144
KLEX 151954Z 25011G23KT 10SM FEW065 25/17 A2996 RMK AO2 SLP137 T02500167
KLEX 151854Z 25014G23KT 10SM FEW025 SCT036 BKN060 24/18 A2998 RMK AO2 PK WND 23027/1828 SLP143 T02440183
KLEX 151754Z 23013G24KT 10SM BKN022 BKN029 BKN033 24/19 A3000 RMK AO2 SLP150 60000 T02440189 10250 20194 58012
KLEX 151654Z 22014G19KT 10SM BKN020 OVC027 23/18 A3002 RMK AO2 PK WND 22026/1603 SLP158 T02280183
KLEX 151554Z 22017G24KT 10SM SCT017 BKN024 23/19 A3003 RMK AO2 PK WND 21026/1541 RAB18E27 SLP159 P0000 T02330189
KLEX 151522Z 21016G23KT 10SM -RA BKN016 BKN040 OVC048 22/18 A3003 RMK AO2 RAB18 P0000 T02220183
KLEX 151454Z 21013G21KT 10SM OVC013 22/18 A3004 RMK AO2 SLP163 T02170183 58003